sensor_id;sensor_type;location;lat;lon;timestamp;pressure;altitude;pressure_sealevel;temperature;humidity
35694;BME280;21812;55.536;37.664;2022-12-07T00:01:41;101005.25;;;-1.88;38.45
35694;BME280;21812;55.536;37.664;2022-12-07T00:04:10;100941.13;;;-1.64;37.47
35694;BME280;21812;55.536;37.664;2022-12-07T00:06:42;100932.19;;;-1.44;36.94
35694;BME280;21812;55.536;37.664;2022-12-07T00:09:12;100953.81;;;-1.40;37.38
35694;BME280;21812;55.536;37.664;2022-12-07T00:11:38;101008.53;;;-1.85;37.25
35694;BME280;21812;55.536;37.664;2022-12-07T00:14:06;100948.59;;;-2.07;38.12
35694;BME280;21812;55.536;37.664;2022-12-07T00:16:33;101005.13;;;-1.36;38.12
35694;BME280;21812;55.536;37.664;2022-12-07T00:18:59;101000.63;;;-2.01;36.98
35694;BME280;21812;55.536;37.664;2022-12-07T00:21:28;100926.56;;;-2.90;38.77
35694;BME280;21812;55.536;37.664;2022-12-07T00:23:55;101004.00;;;-2.51;40.94
35694;BME280;21812;55.536;37.664;2022-12-07T00:26:23;100996.25;;;-2.35;42.55
35694;BME280;21812;55.536;37.664;2022-12-07T00:28:51;100974.09;;;-2.45;39.37
35694;BME280;21812;55.536;37.664;2022-12-07T00:31:19;100996.50;;;-2.40;38.87
35694;BME280;21812;55.536;37.664;2022-12-07T00:33:46;100975.63;;;-2.41;38.52
35694;BME280;21812;55.536;37.664;2022-12-07T00:36:14;100927.09;;;-3.01;39.60
35694;BME280;21812;55.536;37.664;2022-12-07T00:38:41;101007.41;;;-3.04;40.45
35694;BME280;21812;55.536;37.664;2022-12-07T00:41:18;100933.13;;;-3.18;42.97
35694;BME280;21812;55.536;37.664;2022-12-07T00:43:45;100996.03;;;-1.95;43.83
35694;BME280;21812;55.536;37.664;2022-12-07T00:46:11;100997.53;;;-1.74;38.70
35694;BME280;21812;55.536;37.664;2022-12-07T00:48:40;100996.63;;;-1.90;39.16
35694;BME280;21812;55.536;37.664;2022-12-07T00:51:06;101003.69;;;-1.92;39.35
35694;BME280;21812;55.536;37.664;2022-12-07T00:53:36;101007.09;;;-2.08;38.76
35694;BME280;21812;55.536;37.664;2022-12-07T00:56:06;100939.38;;;-2.49;39.88
35694;BME280;21812;55.536;37.664;2022-12-07T00:58:32;100987.25;;;-2.47;39.26
35694;BME280;21812;55.536;37.664;2022-12-07T01:01:00;100992.94;;;-2.21;40.64
35694;BME280;21812;55.536;37.664;2022-12-07T01:03:27;101001.94;;;-1.59;47.04
35694;BME280;21812;55.536;37.664;2022-12-07T01:05:54;101002.97;;;-1.12;44.62
35694;BME280;21812;55.536;37.664;2022-12-07T01:08:21;101004.81;;;-0.66;39.18
35694;BME280;21812;55.536;37.664;2022-12-07T01:10:47;100978.81;;;-0.55;35.54
35694;BME280;21812;55.536;37.664;2022-12-07T01:13:13;100996.59;;;-0.60;46.20
35694;BME280;21812;55.536;37.664;2022-12-07T01:15:43;100990.53;;;-0.61;37.69
35694;BME280;21812;55.536;37.664;2022-12-07T01:18:09;100989.66;;;-0.61;37.19
35694;BME280;21812;55.536;37.664;2022-12-07T01:20:36;100962.28;;;-1.19;37.42
35694;BME280;21812;55.536;37.664;2022-12-07T01:23:02;100996.03;;;-1.62;38.99
35694;BME280;21812;55.536;37.664;2022-12-07T01:25:27;100975.13;;;-1.80;37.68
35694;BME280;21812;55.536;37.664;2022-12-07T01:27:53;100994.25;;;-1.95;43.78
35694;BME280;21812;55.536;37.664;2022-12-07T01:30:19;101001.00;;;-1.91;40.28
35694;BME280;21812;55.536;37.664;2022-12-07T01:32:44;100987.31;;;-1.96;38.40
35694;BME280;21812;55.536;37.664;2022-12-07T01:35:10;100994.44;;;-1.65;37.87
35694;BME280;21812;55.536;37.664;2022-12-07T01:37:37;100989.59;;;-1.07;47.03
35694;BME280;21812;55.536;37.664;2022-12-07T01:40:05;100981.41;;;-0.85;36.83
35694;BME280;21812;55.536;37.664;2022-12-07T01:42:32;100985.97;;;-1.21;38.78
35694;BME280;21812;55.536;37.664;2022-12-07T01:47:44;100867.59;;;-1.61;38.39
35694;BME280;21812;55.536;37.664;2022-12-07T01:50:11;100970.31;;;-0.44;38.71
35694;BME280;21812;55.536;37.664;2022-12-07T01:52:37;100975.47;;;-0.89;35.96
35694;BME280;21812;55.536;37.664;2022-12-07T01:55:07;100897.41;;;-2.12;38.14
35694;BME280;21812;55.536;37.664;2022-12-07T01:57:37;100899.44;;;-2.35;37.16
35694;BME280;21812;55.536;37.664;2022-12-07T02:00:06;100968.53;;;-1.38;43.78
35694;BME280;21812;55.536;37.664;2022-12-07T02:02:44;100935.22;;;-1.04;37.84
35694;BME280;21812;55.536;37.664;2022-12-07T02:05:11;100959.56;;;-0.86;39.13
35694;BME280;21812;55.536;37.664;2022-12-07T02:07:38;100959.31;;;-1.13;38.01
35694;BME280;21812;55.536;37.664;2022-12-07T02:10:15;100957.25;;;-0.60;37.01
35694;BME280;21812;55.536;37.664;2022-12-07T02:12:41;100964.81;;;-1.02;37.06
35694;BME280;21812;55.536;37.664;2022-12-07T02:15:54;100970.38;;;-1.55;37.95
35694;BME280;21812;55.536;37.664;2022-12-07T02:26:40;100969.09;;;-2.15;43.38
35694;BME280;21812;55.536;37.664;2022-12-07T02:29:11;100960.38;;;-1.65;40.23
35694;BME280;21812;55.536;37.664;2022-12-07T02:31:43;100949.56;;;-1.59;38.08
35694;BME280;21812;55.536;37.664;2022-12-07T02:34:22;100890.22;;;-1.75;41.84
35694;BME280;21812;55.536;37.664;2022-12-07T02:36:55;100892.59;;;-1.39;38.69
35694;BME280;21812;55.536;37.664;2022-12-07T02:39:31;100934.16;;;-0.69;38.86
35694;BME280;21812;55.536;37.664;2022-12-07T02:42:03;100906.03;;;-0.98;36.16
35694;BME280;21812;55.536;37.664;2022-12-07T02:44:34;100952.56;;;-1.33;37.03
35694;BME280;21812;55.536;37.664;2022-12-07T02:47:07;100938.25;;;-0.95;44.84
35694;BME280;21812;55.536;37.664;2022-12-07T02:49:36;100946.88;;;-0.17;40.71
35694;BME280;21812;55.536;37.664;2022-12-07T02:52:04;100936.94;;;-0.72;37.69
35694;BME280;21812;55.536;37.664;2022-12-07T02:54:29;100937.91;;;-0.73;38.06
35694;BME280;21812;55.536;37.664;2022-12-07T02:57:11;100948.13;;;0.06;39.90
35694;BME280;21812;55.536;37.664;2022-12-07T03:00:08;100945.88;;;0.99;40.39
35694;BME280;21812;55.536;37.664;2022-12-07T03:08:00;100930.44;;;-2.10;34.94
35694;BME280;21812;55.536;37.664;2022-12-07T03:16:15;100960.94;;;-5.22;41.45
35694;BME280;21812;55.536;37.664;2022-12-07T03:18:49;100959.81;;;-5.85;42.73
35694;BME280;21812;55.536;37.664;2022-12-07T03:21:20;100904.38;;;-6.60;43.95
35694;BME280;21812;55.536;37.664;2022-12-07T03:23:51;100879.97;;;-7.08;45.03
35694;BME280;21812;55.536;37.664;2022-12-07T03:26:21;100861.72;;;-7.61;45.41
35694;BME280;21812;55.536;37.664;2022-12-07T03:28:54;100887.56;;;-7.58;46.12
35694;BME280;21812;55.536;37.664;2022-12-07T03:33:58;100954.94;;;-7.25;47.00
35694;BME280;21812;55.536;37.664;2022-12-07T03:41:35;100937.84;;;-7.62;48.28
35694;BME280;21812;55.536;37.664;2022-12-07T03:44:02;100952.63;;;-7.66;48.43
35694;BME280;21812;55.536;37.664;2022-12-07T03:47:04;100950.19;;;-7.70;48.95
35694;BME280;21812;55.536;37.664;2022-12-07T03:49:43;100889.00;;;-8.07;48.74
35694;BME280;21812;55.536;37.664;2022-12-07T03:55:02;100960.06;;;-7.83;50.13
35694;BME280;21812;55.536;37.664;2022-12-07T03:57:31;100961.75;;;-7.82;49.48
35694;BME280;21812;55.536;37.664;2022-12-07T03:59:58;100956.00;;;-7.92;49.96
35694;BME280;21812;55.536;37.664;2022-12-07T04:02:27;100923.94;;;-8.20;50.62
35694;BME280;21812;55.536;37.664;2022-12-07T04:04:54;100963.69;;;-7.90;50.23
35694;BME280;21812;55.536;37.664;2022-12-07T04:07:20;100963.06;;;-7.98;50.60
35694;BME280;21812;55.536;37.664;2022-12-07T04:09:46;100938.41;;;-8.13;50.48
35694;BME280;21812;55.536;37.664;2022-12-07T04:12:12;100961.53;;;-8.06;51.12
35694;BME280;21812;55.536;37.664;2022-12-07T04:14:38;100959.63;;;-7.99;50.90
35694;BME280;21812;55.536;37.664;2022-12-07T04:17:03;100957.25;;;-8.07;51.15
35694;BME280;21812;55.536;37.664;2022-12-07T04:19:33;100869.16;;;-8.72;51.83
35694;BME280;21812;55.536;37.664;2022-12-07T04:22:00;100962.88;;;-8.23;51.76
35694;BME280;21812;55.536;37.664;2022-12-07T04:24:27;100951.78;;;-8.29;51.94
35694;BME280;21812;55.536;37.664;2022-12-07T04:26:53;100961.16;;;-8.25;52.22
35694;BME280;21812;55.536;37.664;2022-12-07T04:29:19;100951.75;;;-8.27;52.56
35694;BME280;21812;55.536;37.664;2022-12-07T04:31:45;100948.31;;;-8.28;52.59
35694;BME280;21812;55.536;37.664;2022-12-07T04:34:12;100948.38;;;-8.31;52.82
35694;BME280;21812;55.536;37.664;2022-12-07T04:36:38;100944.19;;;-8.36;52.67
35694;BME280;21812;55.536;37.664;2022-12-07T04:39:05;100951.00;;;-8.32;52.83
35694;BME280;21812;55.536;37.664;2022-12-07T04:41:31;100942.44;;;-8.36;52.85
35694;BME280;21812;55.536;37.664;2022-12-07T04:44:16;100945.09;;;-8.37;53.56
35694;BME280;21812;55.536;37.664;2022-12-07T04:47:38;100943.75;;;-8.51;53.57
35694;BME280;21812;55.536;37.664;2022-12-07T05:17:48;100955.34;;;-8.33;53.94
35694;BME280;21812;55.536;37.664;2022-12-07T05:20:39;100947.69;;;-8.37;54.13
35694;BME280;21812;55.536;37.664;2022-12-07T05:23:05;100956.31;;;-8.37;53.99
35694;BME280;21812;55.536;37.664;2022-12-07T05:25:31;100943.63;;;-8.46;54.56
35694;BME280;21812;55.536;37.664;2022-12-07T05:27:57;100942.69;;;-8.43;54.42
35694;BME280;21812;55.536;37.664;2022-12-07T05:30:23;100946.25;;;-8.48;54.77
35694;BME280;21812;55.536;37.664;2022-12-07T05:32:49;100945.63;;;-8.57;54.92
35694;BME280;21812;55.536;37.664;2022-12-07T05:35:16;100947.47;;;-8.62;55.51
35694;BME280;21812;55.536;37.664;2022-12-07T05:37:42;100945.81;;;-8.65;55.66
35694;BME280;21812;55.536;37.664;2022-12-07T05:40:09;100942.41;;;-8.66;56.16
35694;BME280;21812;55.536;37.664;2022-12-07T05:42:35;100949.19;;;-8.61;56.01
35694;BME280;21812;55.536;37.664;2022-12-07T05:45:01;100933.06;;;-8.73;56.27
35694;BME280;21812;55.536;37.664;2022-12-07T05:47:27;100944.28;;;-8.74;56.39
35694;BME280;21812;55.536;37.664;2022-12-07T05:49:53;100945.22;;;-8.76;56.57
35694;BME280;21812;55.536;37.664;2022-12-07T05:52:19;100949.63;;;-8.80;56.78
35694;BME280;21812;55.536;37.664;2022-12-07T05:54:44;100940.06;;;-8.76;56.63
35694;BME280;21812;55.536;37.664;2022-12-07T05:57:10;100945.22;;;-8.75;56.56
35694;BME280;21812;55.536;37.664;2022-12-07T05:59:36;100946.06;;;-8.76;56.60
35694;BME280;21812;55.536;37.664;2022-12-07T06:02:08;100891.84;;;-9.18;56.93
35694;BME280;21812;55.536;37.664;2022-12-07T06:04:37;100930.19;;;-8.96;56.98
35694;BME280;21812;55.536;37.664;2022-12-07T06:07:04;100931.06;;;-8.97;58.03
35694;BME280;21812;55.536;37.664;2022-12-07T06:09:30;100950.66;;;-8.87;58.01
35694;BME280;21812;55.536;37.664;2022-12-07T06:11:57;100944.75;;;-8.92;58.00
35694;BME280;21812;55.536;37.664;2022-12-07T06:15:06;100948.44;;;-9.02;58.07
35694;BME280;21812;55.536;37.664;2022-12-07T06:17:32;100947.56;;;-9.01;58.29
35694;BME280;21812;55.536;37.664;2022-12-07T06:20:17;100950.16;;;-9.01;58.62
35694;BME280;21812;55.536;37.664;2022-12-07T06:22:43;100952.06;;;-9.10;58.87
35694;BME280;21812;55.536;37.664;2022-12-07T06:25:09;100953.06;;;-9.15;59.37
35694;BME280;21812;55.536;37.664;2022-12-07T06:27:35;100953.06;;;-9.15;59.74
35694;BME280;21812;55.536;37.664;2022-12-07T06:30:01;100956.44;;;-9.12;59.94
35694;BME280;21812;55.536;37.664;2022-12-07T06:32:32;100954.84;;;-9.17;60.17
35694;BME280;21812;55.536;37.664;2022-12-07T06:34:59;100955.78;;;-9.21;59.85
35694;BME280;21812;55.536;37.664;2022-12-07T06:37:25;100955.69;;;-9.17;60.01
35694;BME280;21812;55.536;37.664;2022-12-07T06:39:50;100950.31;;;-9.08;59.91
35694;BME280;21812;55.536;37.664;2022-12-07T06:42:16;100953.53;;;-8.98;59.95
35694;BME280;21812;55.536;37.664;2022-12-07T06:44:42;100942.84;;;-8.84;59.83
35694;BME280;21812;55.536;37.664;2022-12-07T06:47:08;100936.72;;;-8.81;59.46
35694;BME280;21812;55.536;37.664;2022-12-07T06:49:34;100937.44;;;-8.75;59.28
35694;BME280;21812;55.536;37.664;2022-12-07T06:52:00;100924.56;;;-8.78;59.85
35694;BME280;21812;55.536;37.664;2022-12-07T06:54:26;100897.47;;;-9.00;60.15
35694;BME280;21812;55.536;37.664;2022-12-07T06:56:51;100940.31;;;-8.87;60.05
35694;BME280;21812;55.536;37.664;2022-12-07T06:59:17;100941.09;;;-8.83;60.27
35694;BME280;21812;55.536;37.664;2022-12-07T07:01:43;100933.25;;;-8.80;60.88
35694;BME280;21812;55.536;37.664;2022-12-07T07:04:08;100942.69;;;-8.78;60.18
35694;BME280;21812;55.536;37.664;2022-12-07T07:06:34;100943.25;;;-8.67;60.50
35694;BME280;21812;55.536;37.664;2022-12-07T07:09:00;100950.25;;;-8.70;60.08
35694;BME280;21812;55.536;37.664;2022-12-07T07:11:26;100934.03;;;-8.77;60.15
35694;BME280;21812;55.536;37.664;2022-12-07T07:13:51;100950.03;;;-8.61;60.02
35694;BME280;21812;55.536;37.664;2022-12-07T07:16:17;100946.38;;;-8.52;59.69
35694;BME280;21812;55.536;37.664;2022-12-07T07:18:43;100948.88;;;-8.49;59.72
35694;BME280;21812;55.536;37.664;2022-12-07T07:21:09;100948.81;;;-8.46;59.55
35694;BME280;21812;55.536;37.664;2022-12-07T07:23:34;100923.25;;;-8.60;59.49
35694;BME280;21812;55.536;37.664;2022-12-07T07:26:00;100937.56;;;-8.45;59.78
35694;BME280;21812;55.536;37.664;2022-12-07T07:28:26;100934.69;;;-8.36;59.70
35694;BME280;21812;55.536;37.664;2022-12-07T07:30:51;100913.00;;;-8.32;59.87
35694;BME280;21812;55.536;37.664;2022-12-07T07:33:17;100936.72;;;-8.14;59.51
35694;BME280;21812;55.536;37.664;2022-12-07T07:35:43;100918.81;;;-8.23;59.23
35694;BME280;21812;55.536;37.664;2022-12-07T07:38:08;100923.84;;;-8.17;59.75
35694;BME280;21812;55.536;37.664;2022-12-07T07:40:34;100909.22;;;-8.20;59.30
35694;BME280;21812;55.536;37.664;2022-12-07T07:43:00;100913.97;;;-8.04;58.98
35694;BME280;21812;55.536;37.664;2022-12-07T07:45:27;100933.59;;;-7.96;58.96
35694;BME280;21812;55.536;37.664;2022-12-07T07:47:53;100935.31;;;-7.95;58.76
35694;BME280;21812;55.536;37.664;2022-12-07T07:50:19;100936.91;;;-7.89;58.63
35694;BME280;21812;55.536;37.664;2022-12-07T07:52:45;100934.22;;;-7.86;58.36
35694;BME280;21812;55.536;37.664;2022-12-07T07:55:11;100940.06;;;-7.79;58.61
35694;BME280;21812;55.536;37.664;2022-12-07T07:57:40;100938.28;;;-7.77;57.76
35694;BME280;21812;55.536;37.664;2022-12-07T08:00:09;100882.06;;;-8.07;58.03
35694;BME280;21812;55.536;37.664;2022-12-07T08:02:41;100927.84;;;-7.74;57.57
35694;BME280;21812;55.536;37.664;2022-12-07T08:05:10;100936.19;;;-7.64;58.05
35694;BME280;21812;55.536;37.664;2022-12-07T08:07:37;100921.88;;;-7.78;57.33
35694;BME280;21812;55.536;37.664;2022-12-07T08:10:05;100918.44;;;-7.78;57.68
35694;BME280;21812;55.536;37.664;2022-12-07T08:12:35;100888.78;;;-7.99;57.57
35694;BME280;21812;55.536;37.664;2022-12-07T08:15:03;100902.50;;;-7.66;57.40
35694;BME280;21812;55.536;37.664;2022-12-07T08:17:29;100913.19;;;-7.47;58.67
35694;BME280;21812;55.536;37.664;2022-12-07T08:19:54;100919.56;;;-7.57;57.09
35694;BME280;21812;55.536;37.664;2022-12-07T08:22:20;100923.88;;;-7.58;56.70
35694;BME280;21812;55.536;37.664;2022-12-07T08:24:48;100902.28;;;-7.58;56.46
35694;BME280;21812;55.536;37.664;2022-12-07T08:27:14;100907.16;;;-7.48;56.33
35694;BME280;21812;55.536;37.664;2022-12-07T08:29:39;100897.81;;;-7.53;56.00
35694;BME280;21812;55.536;37.664;2022-12-07T08:32:05;100905.97;;;-7.37;55.28
35694;BME280;21812;55.536;37.664;2022-12-07T08:34:31;100908.03;;;-7.49;55.21
35694;BME280;21812;55.536;37.664;2022-12-07T08:36:57;100907.03;;;-7.44;55.39
35694;BME280;21812;55.536;37.664;2022-12-07T08:39:22;100905.25;;;-7.42;55.08
35694;BME280;21812;55.536;37.664;2022-12-07T08:41:48;100902.22;;;-7.27;55.64
35694;BME280;21812;55.536;37.664;2022-12-07T08:44:16;100897.72;;;-7.22;54.86
35694;BME280;21812;55.536;37.664;2022-12-07T08:46:50;100898.63;;;-7.23;54.80
35694;BME280;21812;55.536;37.664;2022-12-07T08:49:40;100879.81;;;-7.03;54.69
35694;BME280;21812;55.536;37.664;2022-12-07T08:52:07;100890.66;;;-6.90;54.23
35694;BME280;21812;55.536;37.664;2022-12-07T08:54:34;100892.50;;;-6.94;54.01
35694;BME280;21812;55.536;37.664;2022-12-07T08:57:00;100882.16;;;-6.95;54.01
35694;BME280;21812;55.536;37.664;2022-12-07T08:59:26;100892.03;;;-6.80;53.97
35694;BME280;21812;55.536;37.664;2022-12-07T09:01:54;100864.75;;;-6.66;52.88
35694;BME280;21812;55.536;37.664;2022-12-07T09:04:19;100863.09;;;-6.44;53.05
35694;BME280;21812;55.536;37.664;2022-12-07T09:06:46;100872.81;;;-6.49;53.79
35694;BME280;21812;55.536;37.664;2022-12-07T09:09:13;100814.53;;;-6.92;52.56
35694;BME280;21812;55.536;37.664;2022-12-07T09:11:39;100875.75;;;-6.58;53.58
35694;BME280;21812;55.536;37.664;2022-12-07T09:14:05;100876.09;;;-6.44;53.43
35694;BME280;21812;55.536;37.664;2022-12-07T09:16:31;100870.00;;;-4.22;66.67
35694;BME280;21812;55.536;37.664;2022-12-07T09:18:57;100857.50;;;-2.33;66.96
35694;BME280;21812;55.536;37.664;2022-12-07T09:21:23;100847.47;;;-0.23;73.55
35694;BME280;21812;55.536;37.664;2022-12-07T09:23:48;100836.22;;;1.65;69.37
35694;BME280;21812;55.536;37.664;2022-12-07T09:26:14;100810.06;;;3.10;68.30
35694;BME280;21812;55.536;37.664;2022-12-07T09:28:40;100822.53;;;4.22;59.63
35694;BME280;21812;55.536;37.664;2022-12-07T09:31:06;100813.84;;;4.43;61.72
35694;BME280;21812;55.536;37.664;2022-12-07T09:33:31;100813.84;;;4.43;57.52
35694;BME280;21812;55.536;37.664;2022-12-07T09:35:58;100824.34;;;3.99;54.79
35694;BME280;21812;55.536;37.664;2022-12-07T09:38:23;100736.78;;;3.13;56.02
35694;BME280;21812;55.536;37.664;2022-12-07T09:40:52;100817.03;;;3.91;55.71
35694;BME280;21812;55.536;37.664;2022-12-07T09:43:22;100806.09;;;3.62;51.95
35694;BME280;21812;55.536;37.664;2022-12-07T09:45:51;100753.13;;;3.86;50.32
35694;BME280;21812;55.536;37.664;2022-12-07T09:48:30;100800.34;;;4.14;42.16
35694;BME280;21812;55.536;37.664;2022-12-07T09:50:59;100802.97;;;4.25;44.95
35694;BME280;21812;55.536;37.664;2022-12-07T09:53:28;100754.72;;;4.44;51.80
35694;BME280;21812;55.536;37.664;2022-12-07T09:55:55;100790.94;;;4.97;38.76
35694;BME280;21812;55.536;37.664;2022-12-07T09:58:26;100770.56;;;5.08;38.13
35694;BME280;21812;55.536;37.664;2022-12-07T10:01:05;100785.22;;;5.34;48.92
35694;BME280;21812;55.536;37.664;2022-12-07T10:03:38;100723.28;;;4.83;42.50
35694;BME280;21812;55.536;37.664;2022-12-07T10:06:05;100785.91;;;4.94;42.18
35694;BME280;21812;55.536;37.664;2022-12-07T10:08:31;100777.34;;;5.22;42.21
35694;BME280;21812;55.536;37.664;2022-12-07T10:10:57;100778.72;;;6.50;46.45
35694;BME280;21812;55.536;37.664;2022-12-07T10:13:41;100737.84;;;8.49;48.51
35694;BME280;21812;55.536;37.664;2022-12-07T10:16:38;100756.38;;;9.39;38.25
35694;BME280;21812;55.536;37.664;2022-12-07T10:19:31;100759.34;;;10.47;47.13
35694;BME280;21812;55.536;37.664;2022-12-07T10:22:13;100671.88;;;10.57;38.70
35694;BME280;21812;55.536;37.664;2022-12-07T10:24:41;100742.31;;;11.30;29.85
35694;BME280;21812;55.536;37.664;2022-12-07T10:27:19;100734.28;;;11.39;36.88
35694;BME280;21812;55.536;37.664;2022-12-07T10:29:50;100703.06;;;11.23;33.80
35694;BME280;21812;55.536;37.664;2022-12-07T10:34:42;100734.13;;;12.27;32.82
35694;BME280;21812;55.536;37.664;2022-12-07T10:42:23;100727.31;;;13.09;41.21
35694;BME280;21812;55.536;37.664;2022-12-07T10:45:03;100700.91;;;11.02;38.72
35694;BME280;21812;55.536;37.664;2022-12-07T10:47:52;100727.31;;;9.54;36.98
35694;BME280;21812;55.536;37.664;2022-12-07T10:53:17;100736.47;;;8.63;42.51
35694;BME280;21812;55.536;37.664;2022-12-07T11:01:43;100728.19;;;9.10;45.78
35694;BME280;21812;55.536;37.664;2022-12-07T11:04:20;100684.44;;;9.21;48.33
35694;BME280;21812;55.536;37.664;2022-12-07T11:06:57;100705.97;;;9.96;43.50
35694;BME280;21812;55.536;37.664;2022-12-07T11:14:53;100700.59;;;8.49;40.63
35694;BME280;21812;55.536;37.664;2022-12-07T11:17:26;100704.88;;;8.86;45.63
35694;BME280;21812;55.536;37.664;2022-12-07T11:20:27;100711.50;;;8.64;39.10
35694;BME280;21812;55.536;37.664;2022-12-07T11:23:11;100707.91;;;7.92;42.16
35694;BME280;21812;55.536;37.664;2022-12-07T11:31:21;100707.50;;;8.14;39.92
35694;BME280;21812;55.536;37.664;2022-12-07T11:33:59;100665.50;;;7.44;42.01
35694;BME280;21812;55.536;37.664;2022-12-07T11:36:56;100698.69;;;8.32;40.74
35694;BME280;21812;55.536;37.664;2022-12-07T11:42:04;100687.31;;;9.54;44.29
35694;BME280;21812;55.536;37.664;2022-12-07T11:44:50;100686.50;;;9.62;41.32
35694;BME280;21812;55.536;37.664;2022-12-07T11:49:54;100588.56;;;8.69;40.70
35694;BME280;21812;55.536;37.664;2022-12-07T11:54:53;100687.97;;;9.22;38.16
35694;BME280;21812;55.536;37.664;2022-12-07T11:57:37;100674.16;;;8.74;40.12
35694;BME280;21812;55.536;37.664;2022-12-07T12:00:08;100684.81;;;8.56;39.80
35694;BME280;21812;55.536;37.664;2022-12-07T12:05:24;100616.22;;;7.96;39.07
35694;BME280;21812;55.536;37.664;2022-12-07T12:13:23;100658.81;;;8.50;43.48
35694;BME280;21812;55.536;37.664;2022-12-07T12:15:58;100668.63;;;8.49;36.72
35694;BME280;21812;55.536;37.664;2022-12-07T12:21:15;100651.41;;;8.26;41.23
35694;BME280;21812;55.536;37.664;2022-12-07T12:24:09;100633.09;;;8.05;40.53
35694;BME280;21812;55.536;37.664;2022-12-07T12:26:33;100655.91;;;8.25;41.52
35694;BME280;21812;55.536;37.664;2022-12-07T12:29:04;100547.75;;;7.62;38.18
35694;BME280;21812;55.536;37.664;2022-12-07T12:34:02;100658.44;;;7.81;38.01
35694;BME280;21812;55.536;37.664;2022-12-07T12:46:49;100670.78;;;7.07;39.79
35694;BME280;21812;55.536;37.664;2022-12-07T12:51:43;100594.09;;;5.98;39.49
35694;BME280;21812;55.536;37.664;2022-12-07T12:54:33;100664.47;;;6.61;41.07
35694;BME280;21812;55.536;37.664;2022-12-07T13:02:37;100662.22;;;5.67;38.92
35694;BME280;21812;55.536;37.664;2022-12-07T13:07:49;100664.06;;;3.77;33.10
35694;BME280;21812;55.536;37.664;2022-12-07T13:15:53;100673.25;;;5.72;40.65
35694;BME280;21812;55.536;37.664;2022-12-07T13:23:52;100641.69;;;6.58;35.68
35694;BME280;21812;55.536;37.664;2022-12-07T13:26:23;100648.69;;;6.50;40.26
35694;BME280;21812;55.536;37.664;2022-12-07T13:29:16;100650.63;;;5.58;37.05
35694;BME280;21812;55.536;37.664;2022-12-07T13:36:57;100656.78;;;5.59;36.00
35694;BME280;21812;55.536;37.664;2022-12-07T13:39:25;100583.41;;;5.49;42.15
35694;BME280;21812;55.536;37.664;2022-12-07T13:41:56;100622.28;;;6.09;42.61
35694;BME280;21812;55.536;37.664;2022-12-07T13:44:24;100649.47;;;6.70;43.66
35694;BME280;21812;55.536;37.664;2022-12-07T13:49:22;100587.50;;;6.61;41.71
35694;BME280;21812;55.536;37.664;2022-12-07T13:51:48;100646.56;;;6.63;37.21
35694;BME280;21812;55.536;37.664;2022-12-07T13:54:15;100640.09;;;6.85;42.37
35694;BME280;21812;55.536;37.664;2022-12-07T13:56:41;100641.16;;;7.02;42.13
35694;BME280;21812;55.536;37.664;2022-12-07T13:59:19;100569.25;;;6.85;35.92
35694;BME280;21812;55.536;37.664;2022-12-07T14:01:47;100618.81;;;7.32;41.06
35694;BME280;21812;55.536;37.664;2022-12-07T14:04:34;100614.69;;;7.75;39.35
35694;BME280;21812;55.536;37.664;2022-12-07T14:07:18;100604.72;;;7.77;41.35
35694;BME280;21812;55.536;37.664;2022-12-07T14:09:56;100605.38;;;8.69;39.97
35694;BME280;21812;55.536;37.664;2022-12-07T14:12:24;100551.94;;;8.63;39.38
35694;BME280;21812;55.536;37.664;2022-12-07T14:14:50;100604.56;;;8.69;34.33
35694;BME280;21812;55.536;37.664;2022-12-07T14:17:21;100605.50;;;8.23;39.98
35694;BME280;21812;55.536;37.664;2022-12-07T14:22:32;100607.75;;;8.54;41.17
35694;BME280;21812;55.536;37.664;2022-12-07T14:25:21;100611.28;;;9.07;37.38
35694;BME280;21812;55.536;37.664;2022-12-07T14:30:19;100598.47;;;9.11;39.63
35694;BME280;21812;55.536;37.664;2022-12-07T14:32:52;100538.97;;;8.68;37.24
35694;BME280;21812;55.536;37.664;2022-12-07T14:35:18;100606.41;;;8.50;32.90
35694;BME280;21812;55.536;37.664;2022-12-07T14:37:47;100551.16;;;7.72;34.74
35694;BME280;21812;55.536;37.664;2022-12-07T14:40:15;100571.94;;;7.87;34.61
35694;BME280;21812;55.536;37.664;2022-12-07T14:42:42;100615.84;;;8.27;37.68
35694;BME280;21812;55.536;37.664;2022-12-07T14:45:17;100614.84;;;7.92;32.55
35694;BME280;21812;55.536;37.664;2022-12-07T14:47:44;100616.91;;;7.24;35.35
35694;BME280;21812;55.536;37.664;2022-12-07T14:50:15;100573.75;;;6.75;36.23
35694;BME280;21812;55.536;37.664;2022-12-07T14:52:44;100575.84;;;6.72;39.88
35694;BME280;21812;55.536;37.664;2022-12-07T14:55:27;100559.72;;;6.93;36.79
35694;BME280;21812;55.536;37.664;2022-12-07T14:57:53;100608.06;;;7.34;37.10
35694;BME280;21812;55.536;37.664;2022-12-07T15:00:21;100609.84;;;7.43;37.38
35694;BME280;21812;55.536;37.664;2022-12-07T15:02:48;100601.91;;;7.33;38.63
35694;BME280;21812;55.536;37.664;2022-12-07T15:05:15;100604.47;;;7.53;38.87
35694;BME280;21812;55.536;37.664;2022-12-07T15:07:41;100596.69;;;7.69;37.52
35694;BME280;21812;55.536;37.664;2022-12-07T15:10:23;100596.06;;;7.75;37.19
35694;BME280;21812;55.536;37.664;2022-12-07T15:12:49;100584.31;;;7.96;39.18
35694;BME280;21812;55.536;37.664;2022-12-07T15:15:15;100574.25;;;8.26;36.37
35694;BME280;21812;55.536;37.664;2022-12-07T15:17:41;100601.00;;;7.70;32.90
35694;BME280;21812;55.536;37.664;2022-12-07T15:20:11;100588.56;;;7.89;38.84
35694;BME280;21812;55.536;37.664;2022-12-07T15:22:37;100578.16;;;8.39;35.87
35694;BME280;21812;55.536;37.664;2022-12-07T15:25:03;100579.75;;;8.06;35.82
35694;BME280;21812;55.536;37.664;2022-12-07T15:27:30;100574.63;;;8.31;38.26
35694;BME280;21812;55.536;37.664;2022-12-07T15:29:56;100579.50;;;8.53;36.95
35694;BME280;21812;55.536;37.664;2022-12-07T15:32:21;100578.78;;;8.77;36.88